Hovedside
METAR-TAF:

METAR-TAF

Lufthavner :

Longyearbyen, Norge

Svalbard lufthavn

breddegrad: 78-15N, lengdegrad: 015-28E, høyde over havet: 2 m

Gjeldene værobservasjon

Denne rapporten ble laget for 25 minutter siden, klokken 04:20 UTC
Vind 9 kt fra Øst-sørøst
Temperatur -11°C
Luftfuktighet 78%
Trykk 1015 hPa
Sikt 10 km eller mer
Få skyer i en høyde av 2000 ft

METAR: ENSB 250420Z 11009KT 9999 FEW020 M11/M14 Q1015 RMK WIND 1400FT 00000KT

Tid: 06:45 (04:45 UTC)

Varsel

Varsel gyldig fra 25. klokken 03 UTC til 25. klokken 24 UTC
Vind 8 kt fra Øst-sørøst
Sikt 10 km eller mer
Spredte skyer i en høyde av 2000 ft

TAF: ENSB 2503/2524 12008KT 9999 SCT020

Værobservasjoner og værvarsel for over 4000 flyplasser (METAR- og TAF-rapporter).

Tilgjengelige stasjoner er representert av de røde og gule prikkene på kartet.

Hold musepekeren over prikken for å se navnet på stasjonen.

Klikk så for å se værobservasjoner og -varsler.

For å forandre kartet kan du klikke på den grønne knappen med svart kryss for å zoome inn, på den grønne knappen med strek for å zoome ut, eller på de grønne pilene for å se tilstøtende kart.


METAR-TAF: